createdAt,value
2019-04-25T00:00:51.441Z,39.3
2019-04-25T00:01:52.314Z,40.6
2019-04-25T00:02:51.705Z,48.0
2019-04-25T00:03:53.395Z,50.6
2019-04-25T00:04:53.061Z,46.1
2019-04-25T00:05:53.754Z,43.2
2019-04-25T00:06:54.442Z,42.4
2019-04-25T00:07:55.129Z,40.9
2019-04-25T00:08:55.830Z,45.9
2019-04-25T00:09:56.498Z,44.6
2019-04-25T00:10:57.197Z,43.3
2019-04-25T00:11:59.676Z,41.6
2019-04-25T00:12:58.595Z,39.6
2019-04-25T00:13:59.281Z,39.3
2019-04-25T00:15:01.280Z,38.0
2019-04-25T00:16:01.871Z,36.9
2019-04-25T00:17:01.753Z,36.2
2019-04-25T00:18:02.334Z,36.7
2019-04-25T00:19:02.689Z,41.2
2019-04-25T00:20:03.379Z,41.0
2019-04-25T00:21:04.062Z,39.6
2019-04-25T00:22:04.755Z,38.0
2019-04-25T00:23:05.441Z,34.7
2019-04-25T00:24:06.119Z,33.7
2019-04-25T00:25:15.017Z,33.6
2019-04-25T00:26:07.497Z,32.5
2019-04-25T00:27:08.174Z,33.0
2019-04-25T00:28:08.851Z,32.2
2019-04-25T00:29:09.546Z,32.8
2019-04-25T00:30:11.326Z,31.8
2019-04-25T00:31:11.979Z,30.8
2019-04-25T00:32:11.750Z,30.0
2019-04-25T00:33:12.279Z,29.4
2019-04-25T00:34:12.953Z,28.9
2019-04-25T00:35:13.639Z,28.5
2019-04-25T00:36:14.327Z,27.8
2019-04-25T00:37:15.011Z,27.6
2019-04-25T00:38:15.701Z,26.8
2019-04-25T00:39:16.384Z,25.9
2019-04-25T00:40:17.068Z,26.6
2019-04-25T00:41:17.751Z,27.3
2019-04-25T00:42:18.436Z,27.6
2019-04-25T00:43:19.121Z,29.1
2019-04-25T00:44:19.805Z,29.2
2019-04-25T00:45:22.060Z,29.3
2019-04-25T00:46:22.533Z,29.6
2019-04-25T00:47:21.856Z,29.8
2019-04-25T00:48:22.540Z,30.1
2019-04-25T00:49:23.701Z,30.0
2019-04-25T00:50:24.053Z,30.0
2019-04-25T00:51:24.736Z,29.7
2019-04-25T00:52:25.446Z,29.2
2019-04-25T00:53:26.101Z,28.4
2019-04-25T00:54:26.783Z,28.0
2019-04-25T00:55:28.983Z,27.6
2019-04-25T00:56:28.151Z,27.2
2019-04-25T00:57:28.832Z,26.7
2019-04-25T00:58:29.541Z,26.6
2019-04-25T00:59:31.924Z,26.7
2019-04-25T01:00:32.581Z,26.5
2019-04-25T01:01:31.727Z,27.1
2019-04-25T01:02:32.258Z,26.6
2019-04-25T01:03:32.942Z,27.0
2019-04-25T01:04:33.752Z,26.3
2019-04-25T01:05:34.299Z,26.1
2019-04-25T01:06:34.982Z,25.3
2019-04-25T01:07:35.667Z,25.5
2019-04-25T01:08:36.359Z,25.2
2019-04-25T01:09:37.035Z,24.9
2019-04-25T01:10:37.770Z,24.6
2019-04-25T01:11:38.448Z,24.4
2019-04-25T01:12:39.137Z,23.9
2019-04-25T01:13:39.822Z,23.6
2019-04-25T01:14:42.001Z,22.8
2019-04-25T01:15:42.479Z,23.0
2019-04-25T01:16:41.855Z,22.5
2019-04-25T01:17:42.533Z,22.1
2019-04-25T01:18:43.620Z,21.0
2019-04-25T01:19:44.958Z,21.1
2019-04-25T01:20:45.369Z,21.3
2019-04-25T01:21:45.586Z,21.1
2019-04-25T01:22:45.938Z,20.9
2019-04-25T01:23:47.288Z,20.8
2019-04-25T01:24:47.305Z,20.9
2019-04-25T01:25:47.992Z,20.8
2019-04-25T01:26:49.600Z,21.0
2019-04-25T01:27:49.750Z,21.1
2019-04-25T01:28:50.019Z,21.0
2019-04-25T01:29:50.698Z,20.9
2019-04-25T01:30:52.075Z,21.0
2019-04-25T01:31:53.725Z,20.9
2019-04-25T01:32:54.297Z,21.2
2019-04-25T01:33:54.635Z,21.1
2019-04-25T01:34:58.386Z,21.1
2019-04-25T01:35:55.679Z,20.7
2019-04-25T01:36:56.979Z,20.8
2019-04-25T01:37:57.308Z,21.2
2019-04-25T01:38:58.856Z,21.1
2019-04-25T01:39:58.404Z,21.1
2019-04-25T01:40:59.089Z,21.1
2019-04-25T01:41:59.767Z,20.9
2019-04-25T01:43:00.449Z,20.6
2019-04-25T01:44:01.134Z,20.6
2019-04-25T01:45:01.819Z,20.8
2019-04-25T01:46:03.374Z,21.0
2019-04-25T01:47:04.208Z,21.2
2019-04-25T01:48:03.906Z,21.1
2019-04-25T01:49:04.585Z,21.4
2019-04-25T01:50:05.280Z,21.1
2019-04-25T01:51:06.004Z,21.9
2019-04-25T01:52:06.685Z,21.3
2019-04-25T01:53:07.365Z,21.6
2019-04-25T01:54:08.044Z,21.6
2019-04-25T01:55:08.748Z,21.5
2019-04-25T01:56:09.415Z,21.1
2019-04-25T01:57:10.100Z,21.3
2019-04-25T01:58:10.784Z,21.4
2019-04-25T01:59:11.462Z,21.5
2019-04-25T02:00:13.777Z,21.8
2019-04-25T02:01:14.245Z,21.4
2019-04-25T02:02:14.035Z,21.3
2019-04-25T02:03:14.191Z,21.3
2019-04-25T02:04:14.872Z,21.7
2019-04-25T02:05:15.551Z,21.5
2019-04-25T02:06:16.238Z,21.3
2019-04-25T02:07:16.919Z,21.4
2019-04-25T02:08:17.613Z,21.3
2019-04-25T02:09:18.288Z,21.9
2019-04-25T02:10:18.974Z,21.5
2019-04-25T02:11:19.659Z,22.0
2019-04-25T02:12:20.383Z,22.0
2019-04-25T02:13:21.032Z,22.0
2019-04-25T02:14:21.719Z,21.9
2019-04-25T02:15:23.471Z,22.1
2019-04-25T02:16:23.825Z,22.0
2019-04-25T02:17:24.112Z,22.0
2019-04-25T02:18:24.434Z,22.4
2019-04-25T02:19:25.114Z,22.1
2019-04-25T02:20:25.798Z,22.3
2019-04-25T02:21:26.492Z,22.1
2019-04-25T02:22:27.179Z,22.2
2019-04-25T02:23:27.848Z,22.2
2019-04-25T02:24:28.541Z,21.9
2019-04-25T02:25:29.216Z,22.0
2019-04-25T02:26:29.897Z,21.1
2019-04-25T02:27:30.583Z,21.3
2019-04-25T02:28:31.270Z,20.9
2019-04-25T02:29:33.250Z,21.1
2019-04-25T02:30:35.284Z,21.2
2019-04-25T02:31:34.745Z,21.0
2019-04-25T02:32:36.788Z,21.1
2019-04-25T02:33:34.654Z,20.9
2019-04-25T02:34:35.342Z,21.1
2019-04-25T02:35:36.016Z,21.4
2019-04-25T02:36:36.699Z,21.4
2019-04-25T02:37:37.383Z,21.2
2019-04-25T02:38:38.064Z,21.3
2019-04-25T02:39:38.744Z,21.1
2019-04-25T02:40:39.424Z,21.0
2019-04-25T02:41:40.112Z,20.5
2019-04-25T02:42:40.799Z,21.0
2019-04-25T02:43:41.477Z,20.3
2019-04-25T02:44:44.424Z,20.6
2019-04-25T02:45:44.218Z,20.4
2019-04-25T02:46:44.941Z,20.1
2019-04-25T02:47:46.209Z,21.0
2019-04-25T02:48:44.868Z,20.3
2019-04-25T02:49:45.557Z,20.5
2019-04-25T02:50:46.400Z,24.1
2019-04-25T02:51:46.939Z,23.6
2019-04-25T02:52:47.612Z,24.4
2019-04-25T02:53:48.291Z,25.5
2019-04-25T02:54:48.977Z,27.5
2019-04-25T02:55:49.668Z,28.5
2019-04-25T02:56:50.339Z,29.4
2019-04-25T02:57:51.021Z,29.7
2019-04-25T02:58:54.132Z,31.8
2019-04-25T02:59:54.603Z,32.9
2019-04-25T03:01:03.385Z,34.7
2019-04-25T03:01:54.221Z,38.3
2019-04-25T03:02:54.801Z,41.1
2019-04-25T03:03:55.095Z,41.9
2019-04-25T03:04:57.482Z,41.9
2019-04-25T03:05:57.384Z,42.6
2019-04-25T03:06:58.377Z,42.7
2019-04-25T03:07:59.376Z,42.4
2019-04-25T03:09:00.087Z,39.9
2019-04-25T03:09:59.551Z,39.4
2019-04-25T03:10:59.906Z,44.0
2019-04-25T03:12:01.642Z,44.7
2019-04-25T03:13:02.102Z,45.8
2019-04-25T03:14:02.133Z,48.3
2019-04-25T03:15:05.343Z,51.9
2019-04-25T03:16:06.899Z,51.6
2019-04-25T03:17:05.238Z,52.7
2019-04-25T03:18:07.379Z,56.4
2019-04-25T03:19:07.633Z,54.4
2019-04-25T03:20:09.254Z,53.3
2019-04-25T03:21:13.420Z,50.6
2019-04-25T03:22:09.987Z,48.4
2019-04-25T03:23:09.492Z,47.4
2019-04-25T03:24:12.456Z,46.3
2019-04-25T03:25:13.106Z,43.9
2019-04-25T03:26:10.026Z,41.9
2019-04-25T03:27:10.701Z,43.3
2019-04-25T03:28:11.401Z,43.0
2019-04-25T03:29:13.543Z,43.1
2019-04-25T03:30:14.939Z,43.9
2019-04-25T03:31:21.064Z,45.9
2019-04-25T03:32:18.761Z,46.6
2019-04-25T03:33:19.346Z,47.5
2019-04-25T03:34:20.341Z,46.9
2019-04-25T03:35:16.161Z,45.7
2019-04-25T03:36:17.240Z,45.7
2019-04-25T03:37:17.517Z,45.6
2019-04-25T03:38:18.206Z,51.0
2019-04-25T03:39:18.887Z,50.2
2019-04-25T03:40:19.567Z,49.0
2019-04-25T03:41:20.246Z,57.2
2019-04-25T03:42:20.932Z,55.5
2019-04-25T03:43:23.182Z,60.9
2019-04-25T03:44:23.695Z,65.6
2019-04-25T03:45:23.709Z,63.2
2019-04-25T03:46:23.659Z,61.0
2019-04-25T03:47:24.342Z,57.8
2019-04-25T03:48:25.226Z,54.1
2019-04-25T03:49:25.704Z,52.7
2019-04-25T03:50:26.387Z,48.7
2019-04-25T03:51:27.077Z,45.8
2019-04-25T03:52:27.762Z,43.8
2019-04-25T03:53:28.444Z,43.5
2019-04-25T03:54:29.136Z,42.7
2019-04-25T03:55:29.818Z,42.0
2019-04-25T03:56:30.508Z,40.9
2019-04-25T03:57:31.187Z,38.7
2019-04-25T03:58:31.874Z,37.4
2019-04-25T03:59:33.606Z,35.3
2019-04-25T04:00:34.224Z,34.6
2019-04-25T04:01:34.296Z,32.9
2019-04-25T04:02:34.607Z,32.1
2019-04-25T04:03:35.301Z,31.9
2019-04-25T04:04:35.992Z,31.3
2019-04-25T04:05:36.672Z,30.9
2019-04-25T04:06:37.359Z,29.3
2019-04-25T04:07:38.042Z,28.6
2019-04-25T04:08:38.736Z,27.9
2019-04-25T04:09:39.408Z,27.3
2019-04-25T04:10:40.099Z,26.7
2019-04-25T04:11:40.782Z,26.1
2019-04-25T04:12:41.463Z,26.0
2019-04-25T04:13:43.823Z,25.6
2019-04-25T04:14:43.758Z,25.0
2019-04-25T04:15:43.520Z,25.0
2019-04-25T04:16:44.379Z,24.2
2019-04-25T04:17:44.884Z,24.0
2019-04-25T04:18:45.574Z,23.9
2019-04-25T04:19:46.259Z,22.8
2019-04-25T04:20:46.945Z,22.6
2019-04-25T04:21:47.634Z,22.3
2019-04-25T04:22:48.318Z,22.5
2019-04-25T04:23:49.003Z,22.4
2019-04-25T04:24:49.694Z,22.2
2019-04-25T04:25:50.384Z,22.1
2019-04-25T04:27:02.036Z,21.3
2019-04-25T04:27:51.777Z,21.5
2019-04-25T04:28:53.320Z,21.0
2019-04-25T04:29:54.267Z,20.8
2019-04-25T04:30:54.155Z,21.1
2019-04-25T04:31:54.523Z,21.0
2019-04-25T04:32:55.178Z,20.8
2019-04-25T04:33:55.871Z,20.6
2019-04-25T04:34:56.551Z,20.3
2019-04-25T04:35:57.242Z,20.1
2019-04-25T04:36:57.926Z,20.0
2019-04-25T04:37:58.628Z,19.3
2019-04-25T04:38:59.298Z,19.6
2019-04-25T04:39:59.992Z,19.6
2019-04-25T04:41:00.674Z,19.4
2019-04-25T04:42:01.365Z,19.7
2019-04-25T04:43:02.055Z,19.6
2019-04-25T04:44:04.166Z,19.5
2019-04-25T04:45:03.679Z,19.4
2019-04-25T04:46:04.348Z,19.8
2019-04-25T04:47:05.025Z,19.4
2019-04-25T04:48:05.707Z,19.9
2019-04-25T04:49:06.388Z,19.8
2019-04-25T04:50:07.077Z,19.5
2019-04-25T04:51:08.941Z,19.5
2019-04-25T04:52:09.323Z,19.6
2019-04-25T04:53:09.267Z,19.6
2019-04-25T04:54:09.808Z,19.4
2019-04-25T04:55:11.657Z,19.3
2019-04-25T04:56:11.338Z,19.6
2019-04-25T04:57:23.228Z,18.6
2019-04-25T04:58:13.097Z,18.6
2019-04-25T04:59:14.607Z,18.7
2019-04-25T05:00:14.564Z,19.1
2019-04-25T05:01:15.619Z,19.1
2019-04-25T05:02:16.511Z,19.6
2019-04-25T05:03:16.859Z,21.1
2019-04-25T05:04:17.159Z,21.3
2019-04-25T05:05:17.344Z,23.4
2019-04-25T05:06:18.044Z,25.1
2019-04-25T05:07:19.515Z,38.7
2019-04-25T05:08:19.400Z,43.9
2019-04-25T05:09:20.087Z,52.6
2019-04-25T05:10:20.779Z,51.6
2019-04-25T05:11:23.558Z,50.2
2019-04-25T05:12:22.137Z,49.6
2019-04-25T05:13:24.165Z,50.8
2019-04-25T05:14:23.915Z,64.6
2019-04-25T05:15:24.763Z,64.8
2019-04-25T05:16:24.873Z,64.0
2019-04-25T05:17:25.564Z,63.6
2019-04-25T05:18:37.001Z,62.1
2019-04-25T05:19:26.931Z,57.6
2019-04-25T05:20:27.619Z,57.2
2019-04-25T05:21:28.310Z,68.0
2019-04-25T05:22:28.998Z,74.8
2019-04-25T05:23:29.695Z,74.5
2019-04-25T05:24:30.375Z,77.7
2019-04-25T05:25:31.065Z,73.4
2019-04-25T05:26:31.755Z,87.7
2019-04-25T05:27:46.395Z,86.1
2019-04-25T05:28:33.476Z,88.3
2019-04-25T05:29:34.095Z,100.0
2019-04-25T05:30:34.501Z,100.0
2019-04-25T05:31:35.188Z,100.0
2019-04-25T05:32:35.925Z,100.0
2019-04-25T05:33:36.567Z,100.0
2019-04-25T05:34:37.258Z,100.0
2019-04-25T05:35:37.950Z,100.0
2019-04-25T05:36:38.643Z,100.0
2019-04-25T05:37:39.338Z,100.0
2019-04-25T05:38:40.027Z,100.0
2019-04-25T05:39:40.740Z,100.0
2019-04-25T05:40:41.386Z,100.0
2019-04-25T05:41:42.080Z,100.0
2019-04-25T05:42:44.295Z,100.0
2019-04-25T05:43:43.656Z,100.0
2019-04-25T05:44:44.337Z,100.0
2019-04-25T05:45:45.032Z,100.0
2019-04-25T05:46:45.737Z,100.0
2019-04-25T05:47:46.445Z,100.0
2019-04-25T05:48:47.120Z,100.0
2019-04-25T05:49:47.813Z,100.0
2019-04-25T05:50:48.511Z,100.0
2019-04-25T05:51:49.208Z,100.0
2019-04-25T05:52:49.897Z,100.0
2019-04-25T05:53:50.593Z,100.0
2019-04-25T05:54:51.282Z,100.0
2019-04-25T05:55:51.945Z,97.7
2019-04-25T05:56:53.746Z,100.0
2019-04-25T05:57:54.286Z,100.0
2019-04-25T05:58:54.983Z,100.0
2019-04-25T05:59:55.677Z,100.0
2019-04-25T06:00:56.380Z,100.0
2019-04-25T06:01:57.064Z,100.0
2019-04-25T06:02:57.748Z,100.0
2019-04-25T06:03:58.442Z,100.0
2019-04-25T06:04:59.133Z,100.0
2019-04-25T06:05:59.824Z,100.0
2019-04-25T06:07:00.515Z,100.0
2019-04-25T06:08:01.206Z,100.0
2019-04-25T06:09:01.976Z,100.0
2019-04-25T06:10:04.092Z,100.0
2019-04-25T06:11:03.957Z,100.0
2019-04-25T06:12:04.729Z,100.0
2019-04-25T06:13:04.736Z,100.0
2019-04-25T06:14:05.427Z,100.0
2019-04-25T06:15:06.118Z,100.0
2019-04-25T06:16:06.788Z,100.0
2019-04-25T06:17:07.482Z,100.0
2019-04-25T06:18:08.170Z,100.0
2019-04-25T06:19:14.307Z,100.0
2019-04-25T06:20:09.552Z,100.0
2019-04-25T06:21:10.252Z,100.0
2019-04-25T06:22:10.939Z,100.0
2019-04-25T06:23:13.193Z,100.0
2019-04-25T06:24:13.295Z,100.0
2019-04-25T06:25:16.249Z,100.0
2019-04-25T06:26:22.862Z,100.0
2019-04-25T06:27:14.415Z,100.0
2019-04-25T06:28:15.100Z,100.0
2019-04-25T06:29:15.787Z,100.0
2019-04-25T06:30:16.571Z,100.0
2019-04-25T06:31:17.174Z,100.0
2019-04-25T06:32:17.871Z,100.0
2019-04-25T06:33:18.606Z,100.0
2019-04-25T06:34:19.981Z,100.0
2019-04-25T06:35:21.029Z,100.0
2019-04-25T06:36:21.096Z,100.0
2019-04-25T06:37:21.406Z,100.0
2019-04-25T06:38:24.839Z,100.0
2019-04-25T06:39:24.390Z,100.0
2019-04-25T06:40:24.164Z,100.0
2019-04-25T06:41:25.852Z,100.0
2019-04-25T06:42:25.698Z,100.0
2019-04-25T06:43:25.798Z,100.0
2019-04-25T06:44:27.160Z,100.0
2019-04-25T06:45:26.833Z,100.0
2019-04-25T06:46:27.526Z,100.0
2019-04-25T06:47:28.223Z,100.0
2019-04-25T06:48:29.012Z,100.0
2019-04-25T06:49:29.603Z,100.0
2019-04-25T06:50:30.296Z,100.0
2019-04-25T06:51:30.992Z,100.0
2019-04-25T06:52:32.139Z,100.0
2019-04-25T06:53:34.465Z,100.0
2019-04-25T06:54:33.490Z,100.0
2019-04-25T06:55:34.313Z,100.0
2019-04-25T06:56:34.529Z,100.0
2019-04-25T06:57:35.141Z,100.0
2019-04-25T06:58:35.833Z,100.0
2019-04-25T06:59:40.939Z,100.0
2019-04-25T07:00:41.242Z,100.0
2019-04-25T07:01:37.906Z,100.0
2019-04-25T07:02:38.596Z,100.0
2019-04-25T07:03:39.290Z,100.0
2019-04-25T07:04:40.283Z,100.0
2019-04-25T07:05:41.067Z,100.0
2019-04-25T07:06:43.464Z,100.0
2019-04-25T07:07:45.259Z,100.0
2019-04-25T07:08:44.569Z,100.0
2019-04-25T07:09:43.780Z,100.0
2019-04-25T07:10:44.699Z,100.0
2019-04-25T07:11:48.080Z,100.0
2019-04-25T07:12:45.814Z,100.0
2019-04-25T07:13:46.512Z,100.0
2019-04-25T07:14:47.205Z,100.0
2019-04-25T07:15:47.897Z,100.0
2019-04-25T07:16:48.593Z,100.0
2019-04-25T07:17:49.285Z,100.0
2019-04-25T07:18:49.988Z,100.0
2019-04-25T07:19:50.723Z,100.0
2019-04-25T07:20:51.421Z,100.0
2019-04-25T07:21:52.119Z,100.0
2019-04-25T07:22:53.739Z,100.0
2019-04-25T07:23:54.156Z,100.0
2019-04-25T07:24:54.198Z,100.0
2019-04-25T07:25:54.893Z,100.0
2019-04-25T07:26:55.582Z,99.1
2019-04-25T07:27:56.278Z,100.0
2019-04-25T07:28:56.976Z,100.0
2019-04-25T07:29:57.670Z,98.1
2019-04-25T07:30:58.382Z,100.0
2019-04-25T07:31:59.072Z,100.0
2019-04-25T07:32:59.755Z,98.4
2019-04-25T07:34:00.449Z,97.7
2019-04-25T07:35:01.146Z,100.0
2019-04-25T07:36:01.838Z,100.0
2019-04-25T07:37:03.419Z,100.0
2019-04-25T07:38:03.986Z,100.0
2019-04-25T07:39:09.732Z,96.4
2019-04-25T07:40:04.607Z,100.0
2019-04-25T07:41:05.304Z,100.0
2019-04-25T07:42:06.000Z,100.0
2019-04-25T07:43:06.694Z,96.5
2019-04-25T07:44:07.397Z,98.7
2019-04-25T07:45:08.169Z,97.1
2019-04-25T07:46:08.832Z,100.0
2019-04-25T07:47:09.531Z,98.2
2019-04-25T07:48:10.231Z,99.6
2019-04-25T07:49:10.921Z,96.9
2019-04-25T07:50:11.620Z,99.7
2019-04-25T07:51:16.197Z,94.2
2019-04-25T07:52:13.585Z,90.8
2019-04-25T07:53:14.315Z,91.9
2019-04-25T07:54:14.432Z,94.4
2019-04-25T07:55:15.095Z,93.2
2019-04-25T07:56:15.801Z,91.1
2019-04-25T07:57:16.490Z,83.8
2019-04-25T07:58:17.187Z,84.6
2019-04-25T07:59:17.883Z,86.9
2019-04-25T08:00:18.575Z,85.0
2019-04-25T08:01:19.273Z,85.7
2019-04-25T08:02:19.977Z,81.3
2019-04-25T08:03:20.668Z,78.8
2019-04-25T08:04:21.372Z,78.9
2019-04-25T08:05:22.080Z,76.8
2019-04-25T08:06:24.260Z,75.5
2019-04-25T08:07:24.071Z,73.2
2019-04-25T08:08:24.149Z,71.3
2019-04-25T08:09:24.853Z,69.7
2019-04-25T08:10:25.543Z,71.3
2019-04-25T08:11:26.243Z,72.5
2019-04-25T08:12:28.255Z,69.1
2019-04-25T08:13:27.758Z,70.4
2019-04-25T08:14:28.544Z,69.3
2019-04-25T08:15:29.967Z,69.9
2019-04-25T08:16:30.059Z,68.4
2019-04-25T08:17:30.548Z,68.0
2019-04-25T08:18:31.075Z,70.5
2019-04-25T08:19:33.224Z,71.3
2019-04-25T08:20:34.291Z,70.9
2019-04-25T08:21:34.428Z,70.9
2019-04-25T08:22:42.931Z,72.8
2019-04-25T08:23:36.727Z,69.7
2019-04-25T08:24:35.858Z,71.2
2019-04-25T08:25:38.901Z,72.7
2019-04-25T08:26:37.516Z,74.3
2019-04-25T08:27:37.326Z,70.6
2019-04-25T08:28:49.974Z,70.7
2019-04-25T08:29:39.764Z,69.6
2019-04-25T08:30:39.419Z,72.3
2019-04-25T08:31:40.112Z,72.3
2019-04-25T08:32:41.577Z,72.7
2019-04-25T08:33:43.524Z,74.7
2019-04-25T08:34:43.189Z,74.1
2019-04-25T08:36:02.976Z,75.1
2019-04-25T08:36:45.404Z,79.2
2019-04-25T08:37:44.284Z,76.8
2019-04-25T08:38:44.984Z,75.4
2019-04-25T08:39:45.682Z,79.5
2019-04-25T08:40:46.383Z,77.2
2019-04-25T08:41:47.075Z,78.0
2019-04-25T08:42:47.776Z,77.8
2019-04-25T08:43:48.513Z,73.8
2019-04-25T08:44:49.198Z,77.6
2019-04-25T08:45:49.873Z,71.0
2019-04-25T08:46:50.567Z,71.6
2019-04-25T08:47:51.266Z,75.4
2019-04-25T08:48:53.912Z,76.6
2019-04-25T08:49:53.879Z,76.2
2019-04-25T08:50:53.773Z,74.8
2019-04-25T08:51:55.807Z,73.3
2019-04-25T08:52:55.024Z,74.8
2019-04-25T08:53:55.721Z,76.3
2019-04-25T08:54:57.645Z,72.6
2019-04-25T08:55:57.113Z,73.9
2019-04-25T08:56:57.811Z,73.9
2019-04-25T08:57:58.509Z,74.2
2019-04-25T08:59:05.523Z,73.9
2019-04-25T08:59:59.913Z,71.8
2019-04-25T09:01:01.534Z,69.9
2019-04-25T09:02:01.315Z,69.3
2019-04-25T09:03:02.017Z,72.8
2019-04-25T09:04:04.963Z,72.9
2019-04-25T09:05:04.113Z,68.6
2019-04-25T09:06:04.152Z,66.8
2019-04-25T09:07:05.465Z,66.8
2019-04-25T09:08:05.485Z,66.4
2019-04-25T09:09:07.245Z,68.3
2019-04-25T09:10:06.877Z,66.8
2019-04-25T09:11:07.581Z,65.9
2019-04-25T09:12:08.278Z,64.9
2019-04-25T09:13:08.999Z,66.7
2019-04-25T09:14:09.694Z,64.9
2019-04-25T09:15:10.360Z,63.2
2019-04-25T09:16:11.056Z,63.7
2019-04-25T09:17:11.752Z,64.3
2019-04-25T09:18:14.019Z,65.0
2019-04-25T09:19:14.228Z,66.4
2019-04-25T09:20:14.065Z,64.9
2019-04-25T09:21:14.590Z,62.9
2019-04-25T09:22:15.288Z,60.3
2019-04-25T09:23:15.987Z,63.4
2019-04-25T09:24:16.687Z,62.6
2019-04-25T09:25:17.391Z,58.5
2019-04-25T09:26:18.088Z,60.3
2019-04-25T09:27:18.787Z,59.0
2019-04-25T09:28:19.489Z,60.5
2019-04-25T09:29:20.192Z,59.3
2019-04-25T09:30:20.934Z,58.6
2019-04-25T09:31:23.471Z,60.3
2019-04-25T09:32:23.864Z,59.1
2019-04-25T09:33:23.289Z,59.1
2019-04-25T09:34:23.895Z,62.4
2019-04-25T09:35:24.489Z,62.5
2019-04-25T09:36:25.159Z,60.4
2019-04-25T09:37:25.858Z,60.0
2019-04-25T09:38:26.560Z,62.3
2019-04-25T09:39:27.257Z,60.4
2019-04-25T09:40:27.957Z,62.5
2019-04-25T09:41:28.662Z,62.5
2019-04-25T09:42:29.359Z,64.2
2019-04-25T09:43:30.060Z,63.3
2019-04-25T09:44:30.762Z,65.6
2019-04-25T09:45:31.462Z,64.8
2019-04-25T09:46:32.159Z,63.5
2019-04-25T09:47:33.529Z,63.8
2019-04-25T09:48:35.346Z,64.0
2019-04-25T09:49:35.211Z,64.9
2019-04-25T09:50:34.946Z,63.8
2019-04-25T09:51:36.013Z,63.8
2019-04-25T09:52:36.340Z,62.2
2019-04-25T09:53:43.447Z,61.4
2019-04-25T09:54:38.067Z,62.2
2019-04-25T09:55:39.586Z,62.0
2019-04-25T09:56:40.469Z,62.2
2019-04-25T09:57:40.934Z,64.8
2019-04-25T09:58:42.121Z,64.7
2019-04-25T09:59:43.984Z,64.1
2019-04-25T10:00:44.568Z,63.2
2019-04-25T10:01:44.811Z,63.1
2019-04-25T10:02:44.651Z,62.1
2019-04-25T10:03:45.737Z,63.8
2019-04-25T10:04:46.380Z,60.7
2019-04-25T10:05:46.870Z,59.8
2019-04-25T10:06:47.553Z,59.8
2019-04-25T10:07:48.977Z,60.0
2019-04-25T10:08:48.668Z,61.2
2019-04-25T10:09:49.368Z,61.8
2019-04-25T10:10:50.070Z,59.0
2019-04-25T10:11:50.774Z,60.1
2019-04-25T10:12:51.468Z,60.8
2019-04-25T10:13:53.515Z,61.2
2019-04-25T10:14:54.264Z,61.0
2019-04-25T10:15:54.551Z,61.8
2019-04-25T10:16:54.264Z,60.1
2019-04-25T10:17:54.957Z,60.4
2019-04-25T10:18:55.657Z,59.3
2019-04-25T10:19:56.358Z,60.1
2019-04-25T10:20:57.054Z,56.8
2019-04-25T10:21:57.757Z,53.7
2019-04-25T10:22:58.457Z,54.9
2019-04-25T10:23:59.157Z,56.8
2019-04-25T10:25:00.824Z,55.8
2019-04-25T10:26:00.552Z,56.5
2019-04-25T10:27:01.253Z,56.6
2019-04-25T10:28:01.953Z,55.3
2019-04-25T10:29:02.657Z,56.0
2019-04-25T10:30:16.048Z,56.2
2019-04-25T10:31:04.052Z,55.7
2019-04-25T10:32:04.801Z,53.7
2019-04-25T10:33:05.509Z,52.7
2019-04-25T10:34:06.207Z,52.9
2019-04-25T10:35:06.908Z,53.1
2019-04-25T10:36:07.612Z,53.7
2019-04-25T10:37:08.317Z,55.8
2019-04-25T10:38:09.020Z,55.2
2019-04-25T10:39:11.131Z,54.8
2019-04-25T10:40:10.422Z,55.6
2019-04-25T10:41:11.124Z,55.9
2019-04-25T10:42:13.536Z,55.5
2019-04-25T10:43:13.807Z,54.6
2019-04-25T10:44:14.142Z,53.9
2019-04-25T10:45:21.291Z,54.3
2019-04-25T10:46:14.603Z,52.9
2019-04-25T10:47:15.302Z,51.5
2019-04-25T10:48:16.006Z,51.6
2019-04-25T10:49:16.705Z,50.6
2019-04-25T10:50:17.405Z,50.2
2019-04-25T10:51:18.106Z,49.7
2019-04-25T10:52:18.812Z,49.0
2019-04-25T10:53:19.508Z,49.6
2019-04-25T10:54:20.209Z,50.9
2019-04-25T10:55:20.929Z,52.3
2019-04-25T10:56:21.620Z,50.8
2019-04-25T10:57:22.370Z,51.3
2019-04-25T10:58:23.018Z,50.8
2019-04-25T10:59:23.738Z,49.5
2019-04-25T11:00:24.427Z,50.0
2019-04-25T11:01:25.122Z,49.5
2019-04-25T11:02:25.822Z,49.3
2019-04-25T11:03:26.629Z,47.7
2019-04-25T11:04:27.221Z,46.6
2019-04-25T11:05:27.924Z,45.2
2019-04-25T11:06:28.629Z,46.3
2019-04-25T11:07:29.300Z,46.6
2019-04-25T11:08:30.004Z,46.0
2019-04-25T11:09:30.702Z,48.0
2019-04-25T11:10:31.406Z,49.0
2019-04-25T11:11:32.117Z,48.9
2019-04-25T11:12:33.788Z,48.5
2019-04-25T11:13:35.270Z,48.4
2019-04-25T11:14:34.350Z,51.1
2019-04-25T11:15:34.916Z,50.0
2019-04-25T11:16:35.615Z,51.4
2019-04-25T11:17:36.363Z,50.1
2019-04-25T11:18:37.011Z,49.0
2019-04-25T11:19:37.717Z,50.0
2019-04-25T11:20:38.418Z,48.5
2019-04-25T11:21:39.120Z,48.5
2019-04-25T11:22:39.823Z,48.0
2019-04-25T11:23:41.382Z,47.8
2019-04-25T11:24:41.638Z,47.7
2019-04-25T11:25:42.946Z,46.6
2019-04-25T11:26:44.597Z,46.7
2019-04-25T11:27:46.676Z,47.1
2019-04-25T11:28:45.326Z,47.7
2019-04-25T11:29:45.065Z,46.5
2019-04-25T11:30:46.514Z,47.9
2019-04-25T11:31:47.293Z,48.0
2019-04-25T11:32:46.793Z,46.7
2019-04-25T11:33:47.505Z,46.2
2019-04-25T11:34:48.203Z,47.8
2019-04-25T11:35:49.034Z,47.7
2019-04-25T11:36:49.604Z,48.2
2019-04-25T11:37:50.546Z,48.0
2019-04-25T11:38:52.191Z,47.8
2019-04-25T11:39:51.698Z,47.7
2019-04-25T11:40:54.953Z,47.6
2019-04-25T11:41:55.345Z,48.7
2019-04-25T11:42:54.596Z,48.2
2019-04-25T11:43:55.639Z,48.0
2019-04-25T11:44:55.575Z,48.9
2019-04-25T11:45:57.068Z,48.2
2019-04-25T11:46:56.597Z,47.6
2019-04-25T11:47:57.264Z,47.3
2019-04-25T11:48:57.974Z,47.2
2019-04-25T11:49:58.677Z,46.4
2019-04-25T11:50:59.379Z,45.3
2019-04-25T11:52:00.092Z,44.9
2019-04-25T11:53:00.991Z,45.3
2019-04-25T11:54:01.483Z,45.3
2019-04-25T11:55:04.072Z,43.8
2019-04-25T11:56:03.729Z,42.6
2019-04-25T11:57:03.624Z,43.1
2019-04-25T11:58:04.282Z,43.3
2019-04-25T11:59:04.986Z,43.1
2019-04-25T12:00:05.683Z,42.5
2019-04-25T12:01:06.402Z,41.8
2019-04-25T12:02:07.161Z,41.8
2019-04-25T12:03:07.862Z,42.7
2019-04-25T12:04:08.620Z,44.9
2019-04-25T12:05:09.321Z,46.6
2019-04-25T12:06:11.320Z,44.6
2019-04-25T12:07:10.716Z,44.4
2019-04-25T12:08:11.429Z,44.2
2019-04-25T12:09:13.754Z,43.7
2019-04-25T12:10:12.828Z,44.3
2019-04-25T12:11:13.967Z,42.6
2019-04-25T12:12:14.690Z,41.7
2019-04-25T12:13:15.443Z,42.2
2019-04-25T12:14:15.624Z,42.1
2019-04-25T12:15:16.327Z,40.8
2019-04-25T12:16:17.035Z,40.6
2019-04-25T12:17:17.738Z,41.0
2019-04-25T12:18:18.445Z,41.3
2019-04-25T12:19:19.114Z,40.4
2019-04-25T12:20:19.825Z,41.5
2019-04-25T12:21:20.526Z,40.1
2019-04-25T12:22:21.229Z,39.2
2019-04-25T12:23:23.338Z,38.1
2019-04-25T12:24:23.917Z,38.8
2019-04-25T12:25:23.706Z,39.5
2019-04-25T12:26:26.148Z,40.8
2019-04-25T12:27:24.740Z,41.6
2019-04-25T12:28:25.427Z,43.1
2019-04-25T12:29:26.132Z,44.7
2019-04-25T12:30:37.305Z,44.8
2019-04-25T12:31:27.533Z,45.9
2019-04-25T12:32:28.253Z,46.5
2019-04-25T12:33:28.954Z,47.4
2019-04-25T12:34:29.658Z,46.4
2019-04-25T12:35:30.362Z,46.3
2019-04-25T12:36:31.069Z,46.4
2019-04-25T12:37:31.741Z,46.7
2019-04-25T12:38:33.480Z,46.3
2019-04-25T12:39:34.167Z,45.3
2019-04-25T12:40:34.813Z,44.8
2019-04-25T12:41:35.513Z,45.6
2019-04-25T12:42:36.224Z,44.4
2019-04-25T12:43:36.923Z,44.5
2019-04-25T12:44:37.618Z,43.4
2019-04-25T12:45:38.290Z,42.7
2019-04-25T12:46:38.994Z,43.4
2019-04-25T12:47:39.698Z,44.3
2019-04-25T12:48:41.105Z,45.8
2019-04-25T12:49:43.694Z,46.0
2019-04-25T12:50:43.993Z,46.4
2019-04-25T12:51:44.173Z,46.8
2019-04-25T12:52:46.515Z,46.9
2019-04-25T12:53:46.462Z,47.9
2019-04-25T12:54:47.435Z,48.3
2019-04-25T12:55:47.497Z,48.7
2019-04-25T12:56:47.726Z,48.7
2019-04-25T12:57:49.438Z,48.4
2019-04-25T12:58:49.119Z,47.1
2019-04-25T12:59:49.824Z,47.1
2019-04-25T13:00:54.194Z,48.1
2019-04-25T13:01:51.280Z,46.9
2019-04-25T13:02:52.716Z,47.8
2019-04-25T13:03:54.337Z,47.9
2019-04-25T13:04:55.365Z,47.9
2019-04-25T13:05:55.054Z,48.1
2019-04-25T13:06:55.965Z,49.4
2019-04-25T13:07:58.440Z,48.0
2019-04-25T13:08:57.139Z,48.2
2019-04-25T13:09:57.838Z,47.9
2019-04-25T13:11:07.964Z,47.9
2019-04-25T13:11:59.239Z,48.3
2019-04-25T13:13:00.049Z,48.7
2019-04-25T13:14:00.816Z,48.2
2019-04-25T13:15:01.516Z,48.0
2019-04-25T13:16:02.223Z,46.4
2019-04-25T13:17:03.802Z,47.6
2019-04-25T13:18:03.646Z,48.3
2019-04-25T13:19:16.366Z,47.8
2019-04-25T13:20:05.603Z,47.0
2019-04-25T13:21:05.837Z,47.9
2019-04-25T13:22:06.534Z,47.9
2019-04-25T13:23:07.623Z,49.7
2019-04-25T13:24:07.931Z,48.5